Ana Sayfa
Uydu Görüntüleri 15 günlük hava durumuİklimDenizcilik Siklon Yıldırım Hava limanıSSS Newsletter Hakkında
Hava : Avrupa Afrika Kuzey Amerika Güney Amerika Asya Avustralya-Okyanusya Diğer
Diller Erişim

Istanbul Sabiha Gökçen, Türkiye

Enlem: 40-53-55N, Boylam: 029-18-33E, yükseklik: 95 m


METAR: LTFJ 011150Z 02010KT 350V050 CAVOK 23/08 Q1022 NOSIG RMK RWY24 03008KT 360V060
TAF: LTFJ 011040Z 0112/0212 01008KT CAVOK BECMG 0200/0203 SCT035

Saat: 15:12 (12:12 UTC)

Current weather observation

Rapor 22 dakika önce saat 11:50 UTC de hazýrlanmýþ.
Rüzgâr 10 kt yönü kuzey/kuzeydoğu, arasýnda deðiþken kuzey ve kuzeydoğu
Sıcaklık 23°C
Humidity 38%
Basınç 1022 hPa
Görüş 10 km veya daha fazla
1500m altýnda bulut bulunmuyor ve kumulonimbus bulutlarý yok

Birim sistemleri

Forecast

Rapor 01 saat ve 32 dakika önce saat 10:40 UTC de hazýrlanmýþ.
Forecast valid from 01 at 12 UTC to 02 at 12 UTC
Rüzgâr 08 kt yönü kuzey
Görüş 10 km veya daha fazla
1500m altýnda bulut bulunmuyor ve kumulonimbus bulutlarý yok
Uygun
from 02 at 00 UTC to 02 at 03 UTC
scattered at a height of 3500 ft
Allmetsat bilgi geçerliliğini garanti etmez sorumluluk reddi
Hava : Avrupa Afrika Kuzey Amerika Güney Amerika Asya Avustralya-Okyanusya Diğer
Uydu Görüntüleri 15 günlük hava durumuİklimDenizcilik Siklon Yıldırım Hava limanıSSS Diller Erişim Newsletter Hakkında